createdAt,value
2019-04-04T00:03:51.860Z,16.40
2019-04-04T00:08:51.846Z,21.30
2019-04-04T00:13:51.473Z,16.63
2019-04-04T00:18:51.497Z,16.13
2019-04-04T00:23:51.105Z,18.70
2019-04-04T00:28:50.725Z,16.30
2019-04-04T00:33:50.362Z,19.13
2019-04-04T00:38:50.066Z,16.87
2019-04-04T00:43:49.859Z,15.50
2019-04-04T00:48:51.037Z,16.97
2019-04-04T00:53:50.660Z,20.57
2019-04-04T00:58:52.076Z,21.07
2019-04-04T01:03:51.609Z,17.50
2019-04-04T01:08:51.503Z,25.13
2019-04-04T01:13:51.113Z,22.87
2019-04-04T01:18:50.744Z,20.70
2019-04-04T01:23:50.683Z,15.53
2019-04-04T01:28:50.594Z,14.50
2019-04-04T01:33:51.576Z,16.00
2019-04-04T01:38:51.517Z,15.63
2019-04-04T01:43:51.129Z,13.07
2019-04-04T01:48:50.786Z,11.60
2019-04-04T01:53:50.431Z,13.17
2019-04-04T01:58:50.046Z,14.40
2019-04-04T02:03:49.672Z,12.30
2019-04-04T02:08:49.318Z,11.20
2019-04-04T02:13:49.320Z,13.13
2019-04-04T02:18:48.949Z,12.73
2019-04-04T02:23:48.861Z,12.73
2019-04-04T02:28:48.519Z,13.00
2019-04-04T02:33:48.157Z,11.60
2019-04-04T02:39:05.733Z,10.87
2019-04-04T02:44:05.715Z,11.73
2019-04-04T02:49:05.741Z,11.30
2019-04-04T02:54:05.695Z,12.60
2019-04-04T02:59:05.526Z,15.70
2019-04-04T03:04:05.280Z,6.23
2019-04-04T03:09:09.096Z,13.93
2019-04-04T03:14:08.114Z,14.80
2019-04-04T03:19:10.905Z,13.47
2019-04-04T03:24:09.141Z,9.50
2019-04-04T03:29:10.634Z,6.30
2019-04-04T03:34:12.544Z,7.40
2019-04-04T03:39:11.762Z,9.87
2019-04-04T03:44:11.498Z,9.63
2019-04-04T03:49:11.151Z,10.03
2019-04-04T03:54:22.000Z,10.60
2019-04-04T03:59:19.427Z,8.57
2019-04-04T04:04:19.051Z,8.90
2019-04-04T04:09:18.711Z,7.80
2019-04-04T04:14:21.658Z,7.43
2019-04-04T04:19:23.962Z,10.70
2019-04-04T04:24:21.399Z,7.77
2019-04-04T04:29:33.376Z,8.57
2019-04-04T04:34:34.185Z,9.40
2019-04-04T04:39:40.792Z,11.23
2019-04-04T04:44:37.880Z,7.37
2019-04-04T04:49:36.756Z,16.30
2019-04-04T04:54:37.487Z,8.73
2019-04-04T04:59:37.138Z,8.90
2019-04-04T05:04:36.819Z,11.10
2019-04-04T05:09:36.450Z,13.20
2019-04-04T05:14:36.351Z,10.90
2019-04-04T05:19:35.989Z,14.43
2019-04-04T05:24:35.648Z,11.27
2019-04-04T05:29:35.330Z,16.63
2019-04-04T05:34:35.012Z,12.83
2019-04-04T05:39:34.660Z,13.20
2019-04-04T05:44:34.440Z,13.50
2019-04-04T05:49:36.150Z,19.87
2019-04-04T05:54:37.046Z,14.10
2019-04-04T05:59:38.300Z,10.80
2019-04-04T06:04:38.010Z,14.00
2019-04-04T06:09:37.676Z,13.07
2019-04-04T06:14:37.332Z,18.37
2019-04-04T06:19:38.395Z,13.90
2019-04-04T06:24:38.399Z,14.30
2019-04-04T06:29:38.383Z,14.13
2019-04-04T06:34:38.304Z,18.60
2019-04-04T06:39:38.355Z,24.90
2019-04-04T06:44:38.275Z,22.67
2019-04-04T06:49:38.527Z,27.93
2019-04-04T06:54:38.190Z,25.77
2019-04-04T06:59:37.934Z,28.13
2019-04-04T07:04:56.819Z,24.90
2019-04-04T07:09:56.490Z,27.57
2019-04-04T07:14:57.126Z,27.27
2019-04-04T07:19:57.034Z,22.30
2019-04-04T07:24:56.667Z,28.57
2019-04-04T07:29:57.279Z,27.73
2019-04-04T07:34:56.942Z,36.57
2019-04-04T07:39:56.627Z,34.90
2019-04-04T07:44:56.271Z,36.63
2019-04-04T07:49:55.942Z,31.27
2019-04-04T07:54:57.103Z,42.87
2019-04-04T07:59:56.758Z,37.30
2019-04-04T08:04:57.074Z,45.23
2019-04-04T08:09:56.778Z,48.03
2019-04-04T08:15:15.683Z,47.40
2019-04-04T08:20:15.453Z,47.17
2019-04-04T08:25:15.362Z,47.90
2019-04-04T08:30:16.611Z,43.73
2019-04-04T08:35:16.282Z,40.80
2019-04-04T08:40:17.396Z,47.33
2019-04-04T08:45:18.146Z,46.60
2019-04-04T08:50:17.871Z,50.60
2019-04-04T08:55:17.540Z,47.67
2019-04-04T09:00:18.245Z,50.20
2019-04-04T09:05:17.912Z,39.83
2019-04-04T09:10:17.704Z,46.60
2019-04-04T09:15:17.738Z,51.23
2019-04-04T09:20:17.531Z,54.07
2019-04-04T09:25:17.187Z,52.63
2019-04-04T09:30:17.258Z,54.33
2019-04-04T09:35:16.986Z,45.77
2019-04-04T09:40:17.007Z,45.90
2019-04-04T09:45:17.223Z,31.20
2019-04-04T09:50:17.262Z,30.07
2019-04-04T09:55:17.039Z,26.23
2019-04-04T10:00:19.038Z,26.33
2019-04-04T10:05:18.850Z,28.10
2019-04-04T10:10:18.874Z,24.80
2019-04-04T10:15:19.273Z,27.60
2019-04-04T10:20:18.994Z,31.07
2019-04-04T10:25:18.644Z,31.93
2019-04-04T10:30:20.307Z,29.37
2019-04-04T10:35:19.942Z,32.03
2019-04-04T10:40:20.063Z,31.50
2019-04-04T10:45:19.728Z,27.47
2019-04-04T10:50:19.446Z,22.70
2019-04-04T10:55:19.679Z,29.03
2019-04-04T11:00:20.083Z,33.63
2019-04-04T11:05:19.755Z,34.70
2019-04-04T11:10:19.670Z,30.60
2019-04-04T11:15:19.335Z,31.90
2019-04-04T11:20:18.978Z,32.40
2019-04-04T11:25:18.726Z,34.60
2019-04-04T11:30:18.528Z,30.90
2019-04-04T11:35:18.154Z,34.37
2019-04-04T11:40:17.822Z,37.37
2019-04-04T11:45:17.519Z,32.23
2019-04-04T11:50:17.441Z,46.70
2019-04-04T11:55:17.090Z,37.53
2019-04-04T12:00:23.338Z,38.00
2019-04-04T12:05:23.247Z,23.90
2019-04-04T12:10:22.882Z,37.80
2019-04-04T12:15:22.612Z,34.03
2019-04-04T12:20:22.346Z,35.47
2019-04-04T12:25:22.105Z,33.17
2019-04-04T12:30:21.819Z,31.80
2019-04-04T12:35:21.503Z,35.43
2019-04-04T12:40:21.484Z,34.50
2019-04-04T12:45:22.954Z,31.67
2019-04-04T12:50:22.802Z,35.93
2019-04-04T12:55:22.447Z,40.30
2019-04-04T13:00:22.194Z,32.50
2019-04-04T13:05:21.833Z,29.20
2019-04-04T13:10:32.494Z,37.03
2019-04-04T13:15:23.142Z,31.77
2019-04-04T13:20:22.882Z,36.37
2019-04-04T13:25:22.526Z,37.30
2019-04-04T13:30:23.378Z,35.47
2019-04-04T13:35:23.039Z,29.67
2019-04-04T13:40:23.666Z,24.20
2019-04-04T13:45:25.403Z,36.50
2019-04-04T13:50:24.670Z,25.53
2019-04-04T13:55:25.153Z,32.47
2019-04-04T14:00:25.898Z,32.53
2019-04-04T14:05:25.635Z,34.77
2019-04-04T14:10:25.299Z,39.83
2019-04-04T14:15:25.043Z,39.63
2019-04-04T14:20:24.719Z,28.43
2019-04-04T14:25:24.707Z,39.07
2019-04-04T14:30:24.519Z,37.13
2019-04-04T14:35:24.476Z,25.17
2019-04-04T14:40:24.403Z,39.07
2019-04-04T14:45:25.138Z,39.87
2019-04-04T14:50:24.877Z,37.77
2019-04-04T14:55:24.556Z,38.07
2019-04-04T15:00:24.187Z,38.37
2019-04-04T15:05:23.835Z,48.30
2019-04-04T15:10:23.550Z,38.23
2019-04-04T15:15:26.228Z,48.17
2019-04-04T15:20:26.175Z,42.77
2019-04-04T15:25:25.818Z,45.57
2019-04-04T15:30:25.551Z,43.30
2019-04-04T15:35:25.213Z,43.13
2019-04-04T15:40:24.971Z,43.43
2019-04-04T15:45:24.639Z,45.60
2019-04-04T15:50:24.371Z,36.67
2019-04-04T15:55:24.069Z,42.17
2019-04-04T16:00:23.960Z,31.17
2019-04-04T16:05:23.606Z,23.03
2019-04-04T16:10:23.327Z,26.40
2019-04-04T16:15:23.233Z,29.10
2019-04-04T16:20:22.963Z,37.37
2019-04-04T16:25:22.617Z,39.03
2019-04-04T16:30:22.590Z,44.60
2019-04-04T16:35:22.398Z,35.47
2019-04-04T16:40:22.301Z,33.90
2019-04-04T16:45:22.002Z,35.20
2019-04-04T16:50:22.031Z,25.97
2019-04-04T16:55:22.028Z,23.27
2019-04-04T17:00:22.435Z,38.50
2019-04-04T17:05:22.226Z,25.13
2019-04-04T17:10:21.963Z,28.50
2019-04-04T17:15:21.772Z,33.83
2019-04-04T17:20:21.512Z,31.97
2019-04-04T17:25:21.179Z,35.10
2019-04-04T17:30:21.287Z,30.75
2019-04-04T17:35:21.140Z,28.73
2019-04-04T17:40:21.004Z,25.40
2019-04-04T17:45:21.754Z,23.97
2019-04-04T17:50:22.009Z,31.70
2019-04-04T17:55:21.905Z,40.63
2019-04-04T18:00:23.193Z,54.20
2019-04-04T18:05:23.078Z,43.17
2019-04-04T18:10:22.878Z,31.17
2019-04-04T18:15:22.935Z,34.17
2019-04-04T18:20:22.592Z,29.83
2019-04-04T18:25:22.298Z,47.03
2019-04-04T18:30:22.362Z,46.63
2019-04-04T18:35:22.359Z,38.70
2019-04-04T18:40:23.253Z,34.40
2019-04-04T18:45:22.972Z,36.17
2019-04-04T18:50:22.871Z,28.23
2019-04-04T18:55:22.536Z,23.67
2019-04-04T19:00:22.463Z,22.33
2019-04-04T19:05:22.120Z,26.40
2019-04-04T19:10:22.930Z,25.00
2019-04-04T19:15:22.675Z,19.63
2019-04-04T19:20:22.418Z,23.10
2019-04-04T19:25:22.194Z,25.70
2019-04-04T19:30:22.103Z,22.00
2019-04-04T19:35:21.918Z,22.17
2019-04-04T19:40:21.573Z,25.40
2019-04-04T19:45:21.542Z,20.83
2019-04-04T19:50:21.306Z,20.43
2019-04-04T19:55:21.046Z,18.83
2019-04-04T20:00:22.298Z,23.73
2019-04-04T20:05:22.050Z,21.67
2019-04-04T20:10:22.008Z,22.73
2019-04-04T20:15:21.691Z,23.97
2019-04-04T20:20:21.903Z,26.40
2019-04-04T20:25:21.619Z,20.80
2019-04-04T20:30:35.346Z,24.47
2019-04-04T20:35:35.079Z,22.30
2019-04-04T20:40:34.738Z,21.93
2019-04-04T20:45:34.682Z,22.07
2019-04-04T20:50:35.892Z,27.03
2019-04-04T20:55:35.569Z,25.50
2019-04-04T21:00:35.306Z,25.03
2019-04-04T21:05:35.038Z,24.47
2019-04-04T21:10:34.679Z,18.37
2019-04-04T21:15:34.587Z,27.10
2019-04-04T21:20:34.251Z,22.80
2019-04-04T21:25:33.890Z,26.07
2019-04-04T21:30:33.874Z,29.13
2019-04-04T21:35:33.618Z,27.00
2019-04-04T21:40:33.259Z,23.27
2019-04-04T21:45:32.930Z,30.07
2019-04-04T21:50:32.602Z,23.60
2019-04-04T21:55:32.259Z,22.03
2019-04-04T22:00:40.981Z,26.00
2019-04-04T22:05:41.498Z,21.97
2019-04-04T22:10:41.208Z,26.50
2019-04-04T22:15:41.219Z,20.37
2019-04-04T22:20:40.930Z,22.60
2019-04-04T22:25:40.610Z,32.07
2019-04-04T22:30:40.250Z,37.83
2019-04-04T22:35:39.899Z,50.57
2019-04-04T22:40:39.627Z,46.80
2019-04-04T22:45:39.339Z,44.87
2019-04-04T22:50:39.087Z,41.13
2019-04-04T22:55:38.733Z,31.70
2019-04-04T23:00:38.458Z,44.00
2019-04-04T23:05:38.090Z,37.57
2019-04-04T23:10:38.158Z,38.60
2019-04-04T23:15:37.830Z,46.07
2019-04-04T23:20:37.498Z,49.07
2019-04-04T23:25:37.235Z,43.63
2019-04-04T23:30:36.855Z,49.47
2019-04-04T23:35:36.502Z,47.87
2019-04-04T23:40:36.222Z,51.53
2019-04-04T23:45:35.924Z,40.50
2019-04-04T23:50:35.639Z,40.40
2019-04-04T23:55:35.301Z,43.47
